Crazy Horse, South Dakota
Current Conditions -  °F | °C
As of 8:53 AM on Saturday 25 Oct 2014 (Local Time) from KCUT Reporting Station
Clear Clear  
Wind Chill: 44°   Ceiling: Unl
Heat Index: 44°   Visibility: 10mi
Dew Point: 32°   Wind: 3mph
Humidity: 63%   Direction: 340°NNW
Pressure: 30.21"   Gusts: NA
Location:  43.6653°N, 103.766°W
Report Text: KCUT 251453Z AUTO 34003KT 10SM CLR 07/00 A3021 RMK AO2 SLP215 T00670000 53004
Loading
Personal Weather Stations






























Interactive Weather Map
Tropical Storm Tracking
New forecast layout! Learn more

10-Day Weather Forecast

Advertisements
Track Severe Weather on mobile